Opa-locka Executive Airport Miami US
ICAO: KOPF
IATA: OPF
Category: Medium
Scheduled Services: No

Elevation: 8 ft
TransAlt. 18000 ft.

Airport Communications:
MIAMI APP/DEP:128.6
ATIS:125.9
CLNC DEL:119.2
CTAF:120.7
GND:121.9
CG MIAMI AIR:123.1
TWR:120.7

KOPF Zoom In..

Runways:

(A) RW 09L length 8002 ft width 150 ft
ILS 110.50 / hdg 89

(B) RW 09R length 4309 ft width 100 ft
---- / hdg 89

(C) RW 12 length 6800 ft width 150 ft
ILS 111.55 / hdg 124

(D) RW 27L length 4309 ft width 100 ft
---- / hdg 269

(E) RW 27R length 8002 ft width 150 ft
ILS 111.35 / hdg 269

(F) RW 30 length 6800 ft width 150 ft
---- / hdg 304

Location; KOPF
Day. 30 / Time. 22.53 Zulu
* Altimeter: 29.88
* Temperature: 23° c. 73.4°f.
* Wind from: 250° Speed 07 kn.
Dewpoint: 21° c.
Visibility: 10 Statute Miles.
Clouds: Few 1800 ft.
Clouds: Scattered 3800 ft.
Clouds: Broken 5000 ft.
Conditions: Light Rain.

KOPF 302253Z 25007KT 10SM -RA FEW018 SCT038 BKN050 23/21 A2988 RMK AO2 RAB14E23B46 SLP119 P0000 T02330206

Going to: --> -->


Wind From 250°
Speed 07 kn.

 
 
jpsmedia worldairports.se 2020   terms of use